createdAt,value
2022-09-06T00:04:38.531Z,9.27
2022-09-06T00:09:37.727Z,9.22
2022-09-06T00:14:36.815Z,9.17
2022-09-06T00:19:38.197Z,9.13
2022-09-06T00:24:40.100Z,9.05
2022-09-06T00:29:39.574Z,8.98
2022-09-06T00:34:39.157Z,8.89
2022-09-06T00:39:38.535Z,8.80
2022-09-06T00:44:37.525Z,8.72
2022-09-06T00:49:42.347Z,8.64
2022-09-06T00:54:44.008Z,8.56
2022-09-06T00:59:44.586Z,8.47
2022-09-06T01:04:46.449Z,8.37
2022-09-06T01:10:10.662Z,8.29
2022-09-06T01:15:29.957Z,8.19
2022-09-06T01:20:51.887Z,8.12
2022-09-06T01:26:09.022Z,8.06
2022-09-06T01:31:31.162Z,8.00
2022-09-06T01:36:54.350Z,7.94
2022-09-06T01:41:54.404Z,7.87
2022-09-06T01:47:05.062Z,7.79
2022-09-06T01:52:19.725Z,7.73
2022-09-06T01:57:36.469Z,7.63
2022-09-06T02:02:49.868Z,7.52
2022-09-06T02:07:54.126Z,7.40
2022-09-06T02:13:01.180Z,7.28
2022-09-06T02:18:07.661Z,7.17
2022-09-06T02:23:11.079Z,7.06
2022-09-06T02:28:11.328Z,6.97
2022-09-06T02:33:15.795Z,6.89
2022-09-06T02:38:14.863Z,6.83
2022-09-06T02:43:14.441Z,6.80
2022-09-06T02:48:14.747Z,6.79
2022-09-06T02:53:16.868Z,6.80
2022-09-06T02:58:16.516Z,6.82
2022-09-06T03:03:14.908Z,6.87
2022-09-06T03:08:13.995Z,6.94
2022-09-06T03:13:12.906Z,6.99
2022-09-06T03:18:11.596Z,7.05
2022-09-06T03:23:11.319Z,7.09
2022-09-06T03:28:09.976Z,7.13
2022-09-06T03:33:08.992Z,7.19
2022-09-06T03:38:07.718Z,7.25
2022-09-06T03:43:05.928Z,7.30
2022-09-06T03:48:06.352Z,7.34
2022-09-06T03:53:05.265Z,7.37
2022-09-06T03:58:03.927Z,7.38
2022-09-06T04:03:02.390Z,7.38
2022-09-06T04:08:01.753Z,7.36
2022-09-06T04:13:00.734Z,7.34
2022-09-06T04:17:59.903Z,7.31
2022-09-06T04:22:58.763Z,7.29
2022-09-06T04:27:58.337Z,7.27
2022-09-06T04:32:58.095Z,7.26
2022-09-06T04:37:57.090Z,7.29
2022-09-06T04:42:56.249Z,7.33
2022-09-06T04:47:55.258Z,7.39
2022-09-06T04:52:53.959Z,7.45
2022-09-06T04:57:52.415Z,7.52
2022-09-06T05:02:51.232Z,7.59
2022-09-06T05:07:52.908Z,7.69
2022-09-06T05:12:55.340Z,7.83
2022-09-06T05:17:55.830Z,8.05
2022-09-06T05:22:57.957Z,8.33
2022-09-06T05:27:57.440Z,8.65
2022-09-06T05:32:57.198Z,8.93
2022-09-06T05:37:55.635Z,9.19
2022-09-06T05:42:54.074Z,9.42
2022-09-06T05:47:52.783Z,9.63
2022-09-06T05:52:54.666Z,9.88
2022-09-06T05:57:53.690Z,10.13
2022-09-06T06:02:53.754Z,10.40
2022-09-06T06:07:52.846Z,10.67
2022-09-06T06:12:51.778Z,10.91
2022-09-06T06:17:50.999Z,11.16
2022-09-06T06:22:50.208Z,11.40
2022-09-06T06:27:49.264Z,11.63
2022-09-06T06:32:48.451Z,11.86
2022-09-06T06:37:47.049Z,12.10
2022-09-06T06:42:46.298Z,12.35
2022-09-06T06:47:45.538Z,12.60
2022-09-06T06:52:43.906Z,12.87
2022-09-06T06:57:43.423Z,13.13
2022-09-06T07:02:41.949Z,13.38
2022-09-06T07:07:41.639Z,13.61
2022-09-06T07:12:40.715Z,13.86
2022-09-06T07:17:39.954Z,14.09
2022-09-06T07:22:38.670Z,14.31
2022-09-06T07:27:52.870Z,14.52
2022-09-06T07:32:52.169Z,14.73
2022-09-06T07:37:59.875Z,14.96
2022-09-06T07:43:00.844Z,15.18
2022-09-06T07:48:00.933Z,15.40
2022-09-06T07:53:09.701Z,15.61
2022-09-06T07:58:12.687Z,15.80
2022-09-06T08:03:11.347Z,15.98
2022-09-06T08:13:29.577Z,16.35
2022-09-06T08:18:29.248Z,16.47
2022-09-06T08:23:29.378Z,16.55
2022-09-06T08:28:29.178Z,16.65
2022-09-06T08:33:28.588Z,16.75
2022-09-06T08:38:29.709Z,16.87
2022-09-06T08:43:33.187Z,17.00
2022-09-06T08:48:38.703Z,17.15
2022-09-06T08:53:46.682Z,17.30
2022-09-06T08:59:05.516Z,17.47
2022-09-06T09:04:14.165Z,17.62
2022-09-06T09:09:17.805Z,17.78
2022-09-06T09:14:27.148Z,17.98
2022-09-06T09:19:26.661Z,18.20
2022-09-06T09:24:25.723Z,18.37
2022-09-06T09:29:28.719Z,18.61
2022-09-06T09:34:38.937Z,19.04
2022-09-06T09:39:41.517Z,19.56
2022-09-06T09:44:45.706Z,20.13
2022-09-06T09:49:44.413Z,20.76
2022-09-06T09:54:46.933Z,21.45
2022-09-06T09:59:53.922Z,22.08
2022-09-06T10:05:00.548Z,22.69
2022-09-06T10:10:07.601Z,23.31
2022-09-06T10:15:08.822Z,23.76
2022-09-06T10:20:13.190Z,24.09
2022-09-06T10:25:55.487Z,24.34
2022-09-06T10:31:34.319Z,24.59
2022-09-06T10:36:39.272Z,24.89
2022-09-06T10:42:02.882Z,25.26
2022-09-06T10:47:10.522Z,25.45
2022-09-06T10:52:16.260Z,25.61
2022-09-06T11:13:43.584Z,26.76
2022-09-06T11:18:48.202Z,26.91
2022-09-06T11:23:53.147Z,27.07
2022-09-06T11:28:57.954Z,27.28
2022-09-06T11:34:11.595Z,27.35
2022-09-06T11:39:12.352Z,27.23
2022-09-06T11:44:12.365Z,27.24
2022-09-06T11:49:29.371Z,27.48
2022-09-06T11:54:46.394Z,27.75
2022-09-06T11:59:58.274Z,28.06
2022-09-06T12:05:26.254Z,28.40
2022-09-06T12:10:59.416Z,28.57
2022-09-06T12:15:59.845Z,28.89
2022-09-06T12:21:09.190Z,29.21
2022-09-06T12:26:10.259Z,29.17
2022-09-06T12:31:43.224Z,28.71
2022-09-06T12:36:54.931Z,28.89
2022-09-06T12:41:58.773Z,29.36
2022-09-06T12:47:00.758Z,29.79
2022-09-06T12:52:12.815Z,30.38
2022-09-06T12:57:22.768Z,31.21
2022-09-06T13:02:28.998Z,32.19
2022-09-06T13:07:31.915Z,33.19
2022-09-06T13:12:36.611Z,33.94
2022-09-06T13:17:38.059Z,34.68
2022-09-06T13:22:52.082Z,35.20
2022-09-06T13:27:57.705Z,35.84
2022-09-06T13:32:57.104Z,36.22
2022-09-06T13:38:15.468Z,36.34
2022-09-06T13:43:16.499Z,36.65
2022-09-06T13:48:28.819Z,36.85
2022-09-06T13:53:34.927Z,36.87
2022-09-06T13:58:34.653Z,36.83
2022-09-06T14:03:35.570Z,36.55
2022-09-06T14:08:56.308Z,36.03
2022-09-06T14:13:56.495Z,34.92
2022-09-06T14:18:55.432Z,34.28
2022-09-06T14:23:55.015Z,33.53
2022-09-06T14:28:54.232Z,32.59
2022-09-06T14:33:53.900Z,31.91
2022-09-06T14:38:54.961Z,31.10
2022-09-06T14:43:57.292Z,30.22
2022-09-06T14:49:02.925Z,29.52
2022-09-06T14:54:06.999Z,28.92
2022-09-06T14:59:06.162Z,28.51
2022-09-06T15:04:07.988Z,28.42
2022-09-06T15:09:07.269Z,28.42
2022-09-06T15:14:09.269Z,28.52
2022-09-06T15:19:10.571Z,28.22
2022-09-06T15:24:12.194Z,27.56
2022-09-06T15:29:13.481Z,26.65
2022-09-06T15:34:13.973Z,25.75
2022-09-06T15:39:13.255Z,24.95
2022-09-06T15:44:16.261Z,24.40
2022-09-06T15:49:26.920Z,24.24
2022-09-06T15:54:41.784Z,24.71
2022-09-06T15:59:42.285Z,25.29
2022-09-06T16:04:41.725Z,25.58
2022-09-06T16:09:41.117Z,25.56
2022-09-06T16:14:42.612Z,25.52
2022-09-06T16:19:41.998Z,25.42
2022-09-06T16:24:41.247Z,25.16
2022-09-06T16:29:41.537Z,25.01
2022-09-06T16:34:40.829Z,24.79
2022-09-06T16:39:40.650Z,24.25
2022-09-06T16:44:42.134Z,23.70
2022-09-06T16:49:41.727Z,23.17
2022-09-06T16:54:40.130Z,22.53
2022-09-06T16:59:39.385Z,21.86
2022-09-06T17:04:38.709Z,21.23
2022-09-06T17:09:37.297Z,20.62
2022-09-06T17:14:37.288Z,20.03
2022-09-06T17:19:41.615Z,19.50
2022-09-06T17:24:41.582Z,18.97
2022-09-06T17:29:41.400Z,18.51
2022-09-06T17:34:41.280Z,18.07
2022-09-06T17:39:41.453Z,17.65
2022-09-06T17:44:40.887Z,17.27
2022-09-06T17:49:39.987Z,16.93
2022-09-06T17:54:39.098Z,16.61
2022-09-06T17:59:40.067Z,16.33
2022-09-06T18:04:39.499Z,16.07
2022-09-06T18:09:40.673Z,15.82
2022-09-06T18:14:40.399Z,15.57
2022-09-06T18:19:41.617Z,15.35
2022-09-06T18:24:40.430Z,15.16
2022-09-06T18:29:39.563Z,14.99
2022-09-06T18:34:39.357Z,14.80
2022-09-06T18:39:39.815Z,14.60
2022-09-06T18:44:39.658Z,14.39
2022-09-06T18:49:43.803Z,14.21
2022-09-06T18:54:45.092Z,14.02
2022-09-06T18:59:44.688Z,13.84
2022-09-06T19:04:43.530Z,13.67
2022-09-06T19:09:42.990Z,13.51
2022-09-06T19:14:42.127Z,13.36
2022-09-06T19:19:41.223Z,13.23
2022-09-06T19:24:40.768Z,13.12
2022-09-06T19:29:39.970Z,12.99
2022-09-06T19:34:39.581Z,12.83
2022-09-06T19:39:38.136Z,12.66
2022-09-06T19:44:37.154Z,12.48
2022-09-06T19:49:36.371Z,12.29
2022-09-06T19:54:35.052Z,12.11
2022-09-06T19:59:36.339Z,11.94
2022-09-06T20:04:35.109Z,11.77
2022-09-06T20:09:33.707Z,11.61
2022-09-06T20:14:33.213Z,11.48
2022-09-06T20:19:32.127Z,11.35
2022-09-06T20:24:31.068Z,11.23
2022-09-06T20:29:29.891Z,11.14
2022-09-06T20:34:29.037Z,11.05
2022-09-06T20:39:28.227Z,10.98
2022-09-06T20:44:27.252Z,10.92
2022-09-06T20:49:26.530Z,10.85
2022-09-06T20:54:25.276Z,10.77
2022-09-06T20:59:24.631Z,10.71
2022-09-06T21:04:26.072Z,10.65
2022-09-06T21:09:25.001Z,10.57
2022-09-06T21:14:24.166Z,10.50
2022-09-06T21:19:23.317Z,10.43
2022-09-06T21:24:22.431Z,10.36
2022-09-06T21:29:21.737Z,10.29
2022-09-06T21:34:20.437Z,10.22
2022-09-06T21:39:19.863Z,10.16
2022-09-06T21:44:18.987Z,10.09
2022-09-06T21:49:18.771Z,10.02
2022-09-06T21:54:29.768Z,9.95
2022-09-06T21:59:28.521Z,9.87
2022-09-06T22:04:28.841Z,9.78
2022-09-06T22:09:28.752Z,9.69
2022-09-06T22:14:28.547Z,9.61
2022-09-06T22:19:29.206Z,9.52
2022-09-06T22:24:29.715Z,9.47
2022-09-06T22:29:30.604Z,9.40
2022-09-06T22:34:30.649Z,9.33
2022-09-06T22:39:31.338Z,9.25
2022-09-06T22:44:31.922Z,9.15
2022-09-06T22:49:32.250Z,9.05
2022-09-06T22:54:32.442Z,8.94
2022-09-06T22:59:32.904Z,8.86
2022-09-06T23:04:34.006Z,8.79
2022-09-06T23:09:33.714Z,8.71
2022-09-06T23:14:34.698Z,8.63
2022-09-06T23:19:35.164Z,8.55
2022-09-06T23:24:35.369Z,8.47
2022-09-06T23:29:35.345Z,8.41
2022-09-06T23:34:35.191Z,8.34
2022-09-06T23:39:35.203Z,8.26
2022-09-06T23:44:34.374Z,8.17
2022-09-06T23:49:33.595Z,8.10
2022-09-06T23:54:33.069Z,8.03
2022-09-06T23:59:32.564Z,7.95
